sensor_id;sensor_type;location;lat;lon;timestamp;temperature;humidity
9810;DHT22;4944;52.514;13.192;2022-09-11T00:01:09;17.60;99.90
9810;DHT22;4944;52.514;13.192;2022-09-11T00:03:38;17.50;99.90
9810;DHT22;4944;52.514;13.192;2022-09-11T00:06:10;17.50;99.90
9810;DHT22;4944;52.514;13.192;2022-09-11T00:08:37;17.50;99.90
9810;DHT22;4944;52.514;13.192;2022-09-11T00:11:18;17.40;99.90
9810;DHT22;4944;52.514;13.192;2022-09-11T00:13:47;17.40;99.90
9810;DHT22;4944;52.514;13.192;2022-09-11T00:16:19;17.40;99.90
9810;DHT22;4944;52.514;13.192;2022-09-11T00:18:47;17.40;99.90
9810;DHT22;4944;52.514;13.192;2022-09-11T00:21:23;17.30;99.90
9810;DHT22;4944;52.514;13.192;2022-09-11T00:23:50;17.30;99.90
9810;DHT22;4944;52.514;13.192;2022-09-11T00:26:25;17.30;99.90
9810;DHT22;4944;52.514;13.192;2022-09-11T00:28:52;17.30;99.90
9810;DHT22;4944;52.514;13.192;2022-09-11T00:31:26;17.30;99.90
9810;DHT22;4944;52.514;13.192;2022-09-11T00:33:54;17.20;99.90
9810;DHT22;4944;52.514;13.192;2022-09-11T00:36:24;17.20;99.90
9810;DHT22;4944;52.514;13.192;2022-09-11T00:38:52;17.10;99.90
9810;DHT22;4944;52.514;13.192;2022-09-11T00:41:25;17.10;99.90
9810;DHT22;4944;52.514;13.192;2022-09-11T00:43:56;17.10;99.90
9810;DHT22;4944;52.514;13.192;2022-09-11T00:46:29;17.10;99.90
9810;DHT22;4944;52.514;13.192;2022-09-11T00:48:57;17.00;99.90
9810;DHT22;4944;52.514;13.192;2022-09-11T00:51:28;17.10;99.90
9810;DHT22;4944;52.514;13.192;2022-09-11T00:53:58;17.00;99.90
9810;DHT22;4944;52.514;13.192;2022-09-11T00:56:29;17.10;99.90
9810;DHT22;4944;52.514;13.192;2022-09-11T00:58:57;17.10;99.90
9810;DHT22;4944;52.514;13.192;2022-09-11T01:01:25;17.10;99.90
9810;DHT22;4944;52.514;13.192;2022-09-11T01:03:52;17.00;99.90
9810;DHT22;4944;52.514;13.192;2022-09-11T01:06:19;17.00;99.90
9810;DHT22;4944;52.514;13.192;2022-09-11T01:08:46;17.00;99.90
9810;DHT22;4944;52.514;13.192;2022-09-11T01:11:41;17.00;99.90
9810;DHT22;4944;52.514;13.192;2022-09-11T01:14:20;17.00;99.90
9810;DHT22;4944;52.514;13.192;2022-09-11T01:16:52;17.00;99.90
9810;DHT22;4944;52.514;13.192;2022-09-11T01:19:32;16.90;99.90
9810;DHT22;4944;52.514;13.192;2022-09-11T01:22:26;16.90;99.90
9810;DHT22;4944;52.514;13.192;2022-09-11T01:25:06;16.90;99.90
9810;DHT22;4944;52.514;13.192;2022-09-11T01:27:43;16.90;99.90
9810;DHT22;4944;52.514;13.192;2022-09-11T01:30:13;16.90;99.90
9810;DHT22;4944;52.514;13.192;2022-09-11T01:32:51;16.90;99.90
9810;DHT22;4944;52.514;13.192;2022-09-11T01:35:26;16.90;99.90
9810;DHT22;4944;52.514;13.192;2022-09-11T01:38:00;16.90;99.90
9810;DHT22;4944;52.514;13.192;2022-09-11T01:40:31;16.90;99.90
9810;DHT22;4944;52.514;13.192;2022-09-11T01:43:05;16.90;99.90
9810;DHT22;4944;52.514;13.192;2022-09-11T01:45:34;16.90;99.90
9810;DHT22;4944;52.514;13.192;2022-09-11T01:48:02;16.80;99.90
9810;DHT22;4944;52.514;13.192;2022-09-11T01:50:31;16.80;99.90
9810;DHT22;4944;52.514;13.192;2022-09-11T01:53:02;16.80;99.90
9810;DHT22;4944;52.514;13.192;2022-09-11T01:55:33;16.80;99.90
9810;DHT22;4944;52.514;13.192;2022-09-11T01:58:06;16.80;99.90
9810;DHT22;4944;52.514;13.192;2022-09-11T02:00:34;16.80;99.90
9810;DHT22;4944;52.514;13.192;2022-09-11T02:03:07;16.80;99.90
9810;DHT22;4944;52.514;13.192;2022-09-11T02:05:40;16.70;99.90
9810;DHT22;4944;52.514;13.192;2022-09-11T02:08:12;16.70;99.90
9810;DHT22;4944;52.514;13.192;2022-09-11T02:10:44;16.70;99.90
9810;DHT22;4944;52.514;13.192;2022-09-11T02:13:14;16.70;99.90
9810;DHT22;4944;52.514;13.192;2022-09-11T02:15:47;16.70;99.90
9810;DHT22;4944;52.514;13.192;2022-09-11T02:18:20;16.60;99.90
9810;DHT22;4944;52.514;13.192;2022-09-11T02:20:49;16.60;99.90
9810;DHT22;4944;52.514;13.192;2022-09-11T02:23:17;16.60;99.90
9810;DHT22;4944;52.514;13.192;2022-09-11T02:25:44;16.60;99.90
9810;DHT22;4944;52.514;13.192;2022-09-11T02:28:14;16.60;99.90
9810;DHT22;4944;52.514;13.192;2022-09-11T02:30:41;16.60;99.90
9810;DHT22;4944;52.514;13.192;2022-09-11T02:33:25;16.60;99.90
9810;DHT22;4944;52.514;13.192;2022-09-11T02:35:53;16.60;99.90
9810;DHT22;4944;52.514;13.192;2022-09-11T02:38:29;16.60;99.90
9810;DHT22;4944;52.514;13.192;2022-09-11T02:41:00;16.60;99.90
9810;DHT22;4944;52.514;13.192;2022-09-11T02:43:44;16.50;99.90
9810;DHT22;4944;52.514;13.192;2022-09-11T02:46:34;16.50;99.90
9810;DHT22;4944;52.514;13.192;2022-09-11T02:49:09;16.50;99.90
9810;DHT22;4944;52.514;13.192;2022-09-11T02:51:45;16.50;99.90
9810;DHT22;4944;52.514;13.192;2022-09-11T02:54:20;16.40;99.90
9810;DHT22;4944;52.514;13.192;2022-09-11T02:56:53;16.50;99.90
9810;DHT22;4944;52.514;13.192;2022-09-11T02:59:25;16.40;99.90
9810;DHT22;4944;52.514;13.192;2022-09-11T03:01:55;16.40;99.90
9810;DHT22;4944;52.514;13.192;2022-09-11T03:04:24;16.40;99.90
9810;DHT22;4944;52.514;13.192;2022-09-11T03:06:52;16.40;99.90
9810;DHT22;4944;52.514;13.192;2022-09-11T03:09:20;16.30;99.90
9810;DHT22;4944;52.514;13.192;2022-09-11T03:11:46;16.30;99.90
9810;DHT22;4944;52.514;13.192;2022-09-11T03:14:14;16.30;99.90
9810;DHT22;4944;52.514;13.192;2022-09-11T03:16:43;16.30;99.90
9810;DHT22;4944;52.514;13.192;2022-09-11T03:19:09;16.30;99.90
9810;DHT22;4944;52.514;13.192;2022-09-11T03:21:36;16.30;99.90
9810;DHT22;4944;52.514;13.192;2022-09-11T03:24:04;16.30;99.90
9810;DHT22;4944;52.514;13.192;2022-09-11T03:26:31;16.20;99.90
9810;DHT22;4944;52.514;13.192;2022-09-11T03:28:58;16.10;99.90
9810;DHT22;4944;52.514;13.192;2022-09-11T03:31:31;16.10;99.90
9810;DHT22;4944;52.514;13.192;2022-09-11T03:33:59;16.10;99.90
9810;DHT22;4944;52.514;13.192;2022-09-11T03:36:33;16.00;99.90
9810;DHT22;4944;52.514;13.192;2022-09-11T03:39:00;16.00;99.90
9810;DHT22;4944;52.514;13.192;2022-09-11T03:41:39;16.00;99.90
9810;DHT22;4944;52.514;13.192;2022-09-11T03:44:06;16.10;99.90
9810;DHT22;4944;52.514;13.192;2022-09-11T03:46:33;16.10;99.90
9810;DHT22;4944;52.514;13.192;2022-09-11T03:49:01;16.10;99.90
9810;DHT22;4944;52.514;13.192;2022-09-11T03:51:44;16.00;99.90
9810;DHT22;4944;52.514;13.192;2022-09-11T03:54:12;16.00;99.90
9810;DHT22;4944;52.514;13.192;2022-09-11T03:56:39;15.90;99.90
9810;DHT22;4944;52.514;13.192;2022-09-11T03:59:07;16.00;99.90
9810;DHT22;4944;52.514;13.192;2022-09-11T04:01:34;15.90;99.90
9810;DHT22;4944;52.514;13.192;2022-09-11T04:04:02;15.90;99.90
9810;DHT22;4944;52.514;13.192;2022-09-11T04:06:29;16.00;99.90
9810;DHT22;4944;52.514;13.192;2022-09-11T04:08:57;16.00;99.90
9810;DHT22;4944;52.514;13.192;2022-09-11T04:11:35;16.00;99.90
9810;DHT22;4944;52.514;13.192;2022-09-11T04:14:03;16.00;99.90
9810;DHT22;4944;52.514;13.192;2022-09-11T04:16:30;15.90;99.90
9810;DHT22;4944;52.514;13.192;2022-09-11T04:18:58;16.00;99.90
9810;DHT22;4944;52.514;13.192;2022-09-11T04:21:27;16.00;99.90
9810;DHT22;4944;52.514;13.192;2022-09-11T04:23:55;16.00;99.90
9810;DHT22;4944;52.514;13.192;2022-09-11T04:26:36;16.00;99.90
9810;DHT22;4944;52.514;13.192;2022-09-11T04:29:03;16.00;99.90
9810;DHT22;4944;52.514;13.192;2022-09-11T04:31:30;16.00;99.90
9810;DHT22;4944;52.514;13.192;2022-09-11T04:33:57;16.00;99.90
9810;DHT22;4944;52.514;13.192;2022-09-11T04:36:34;16.00;99.90
9810;DHT22;4944;52.514;13.192;2022-09-11T04:39:01;16.00;99.90
9810;DHT22;4944;52.514;13.192;2022-09-11T04:41:28;16.00;99.90
9810;DHT22;4944;52.514;13.192;2022-09-11T04:43:55;16.00;99.90
9810;DHT22;4944;52.514;13.192;2022-09-11T04:46:32;16.00;99.90
9810;DHT22;4944;52.514;13.192;2022-09-11T04:48:59;16.00;99.90
9810;DHT22;4944;52.514;13.192;2022-09-11T04:51:28;16.00;99.90
9810;DHT22;4944;52.514;13.192;2022-09-11T04:53:58;16.00;99.90
9810;DHT22;4944;52.514;13.192;2022-09-11T04:56:26;16.00;99.90
9810;DHT22;4944;52.514;13.192;2022-09-11T04:58:55;15.90;99.90
9810;DHT22;4944;52.514;13.192;2022-09-11T05:01:34;16.00;99.90
9810;DHT22;4944;52.514;13.192;2022-09-11T05:04:01;16.00;99.90
9810;DHT22;4944;52.514;13.192;2022-09-11T05:06:28;16.00;99.90
9810;DHT22;4944;52.514;13.192;2022-09-11T05:08:59;16.00;99.90
9810;DHT22;4944;52.514;13.192;2022-09-11T05:11:29;16.10;99.90
9810;DHT22;4944;52.514;13.192;2022-09-11T05:13:56;16.10;99.90
9810;DHT22;4944;52.514;13.192;2022-09-11T05:16:29;16.00;99.90
9810;DHT22;4944;52.514;13.192;2022-09-11T05:18:59;16.00;99.90
9810;DHT22;4944;52.514;13.192;2022-09-11T05:21:26;15.90;99.90
9810;DHT22;4944;52.514;13.192;2022-09-11T05:23:55;15.90;99.90
9810;DHT22;4944;52.514;13.192;2022-09-11T05:26:24;15.70;99.90
9810;DHT22;4944;52.514;13.192;2022-09-11T05:28:54;15.80;99.90
9810;DHT22;4944;52.514;13.192;2022-09-11T05:31:30;15.80;99.90
9810;DHT22;4944;52.514;13.192;2022-09-11T05:33:57;15.80;99.90
9810;DHT22;4944;52.514;13.192;2022-09-11T05:36:49;15.80;99.90
9810;DHT22;4944;52.514;13.192;2022-09-11T05:39:16;15.80;99.90
9810;DHT22;4944;52.514;13.192;2022-09-11T05:41:43;15.90;99.90
9810;DHT22;4944;52.514;13.192;2022-09-11T05:44:11;15.90;99.90
9810;DHT22;4944;52.514;13.192;2022-09-11T05:46:37;15.90;99.90
9810;DHT22;4944;52.514;13.192;2022-09-11T05:49:04;16.00;99.90
9810;DHT22;4944;52.514;13.192;2022-09-11T05:51:31;16.10;99.90
9810;DHT22;4944;52.514;13.192;2022-09-11T05:54:00;16.20;99.90
9810;DHT22;4944;52.514;13.192;2022-09-11T05:56:27;16.20;99.90
9810;DHT22;4944;52.514;13.192;2022-09-11T05:58:53;16.20;99.90
9810;DHT22;4944;52.514;13.192;2022-09-11T06:01:31;16.20;99.90
9810;DHT22;4944;52.514;13.192;2022-09-11T06:03:57;16.30;99.90
9810;DHT22;4944;52.514;13.192;2022-09-11T06:06:27;16.20;99.90
9810;DHT22;4944;52.514;13.192;2022-09-11T06:08:54;16.30;99.90
9810;DHT22;4944;52.514;13.192;2022-09-11T06:11:21;16.30;99.90
9810;DHT22;4944;52.514;13.192;2022-09-11T06:13:48;16.30;99.90
9810;DHT22;4944;52.514;13.192;2022-09-11T06:16:23;16.30;99.90
9810;DHT22;4944;52.514;13.192;2022-09-11T06:18:52;16.40;99.90
9810;DHT22;4944;52.514;13.192;2022-09-11T06:21:25;16.40;99.90
9810;DHT22;4944;52.514;13.192;2022-09-11T06:23:53;16.40;99.90
9810;DHT22;4944;52.514;13.192;2022-09-11T06:26:34;16.50;99.90
9810;DHT22;4944;52.514;13.192;2022-09-11T06:29:00;16.50;99.90
9810;DHT22;4944;52.514;13.192;2022-09-11T06:31:27;16.50;99.90
9810;DHT22;4944;52.514;13.192;2022-09-11T06:33:55;16.50;99.90
9810;DHT22;4944;52.514;13.192;2022-09-11T06:36:23;16.50;99.90
9810;DHT22;4944;52.514;13.192;2022-09-11T06:38:51;16.50;99.90
9810;DHT22;4944;52.514;13.192;2022-09-11T06:41:19;16.50;99.90
9810;DHT22;4944;52.514;13.192;2022-09-11T06:43:46;16.60;99.90
9810;DHT22;4944;52.514;13.192;2022-09-11T06:46:25;16.60;99.90
9810;DHT22;4944;52.514;13.192;2022-09-11T06:48:55;16.60;99.90
9810;DHT22;4944;52.514;13.192;2022-09-11T06:51:22;16.60;99.90
9810;DHT22;4944;52.514;13.192;2022-09-11T06:53:52;16.60;99.90
9810;DHT22;4944;52.514;13.192;2022-09-11T06:56:23;16.70;99.90
9810;DHT22;4944;52.514;13.192;2022-09-11T06:58:50;16.70;99.90
9810;DHT22;4944;52.514;13.192;2022-09-11T07:01:34;16.80;99.90
9810;DHT22;4944;52.514;13.192;2022-09-11T07:04:03;16.80;99.90
9810;DHT22;4944;52.514;13.192;2022-09-11T07:06:51;16.90;99.90
9810;DHT22;4944;52.514;13.192;2022-09-11T07:09:18;16.90;99.90
9810;DHT22;4944;52.514;13.192;2022-09-11T07:11:44;16.90;99.90
9810;DHT22;4944;52.514;13.192;2022-09-11T07:14:11;16.90;99.90
9810;DHT22;4944;52.514;13.192;2022-09-11T07:16:38;16.80;99.90
9810;DHT22;4944;52.514;13.192;2022-09-11T07:19:06;16.80;99.90
9810;DHT22;4944;52.514;13.192;2022-09-11T07:21:33;16.80;99.90
9810;DHT22;4944;52.514;13.192;2022-09-11T07:24:02;16.90;99.90
9810;DHT22;4944;52.514;13.192;2022-09-11T07:26:29;16.90;99.90
9810;DHT22;4944;52.514;13.192;2022-09-11T07:28:57;16.90;99.90
9810;DHT22;4944;52.514;13.192;2022-09-11T07:31:48;16.90;99.90
9810;DHT22;4944;52.514;13.192;2022-09-11T07:34:17;17.00;99.90
9810;DHT22;4944;52.514;13.192;2022-09-11T07:36:43;17.00;99.90
9810;DHT22;4944;52.514;13.192;2022-09-11T07:39:10;17.00;99.90
9810;DHT22;4944;52.514;13.192;2022-09-11T07:41:37;17.00;99.90
9810;DHT22;4944;52.514;13.192;2022-09-11T07:44:04;17.10;99.90
9810;DHT22;4944;52.514;13.192;2022-09-11T07:46:32;17.10;99.90
9810;DHT22;4944;52.514;13.192;2022-09-11T07:49:00;17.10;99.90
9810;DHT22;4944;52.514;13.192;2022-09-11T07:51:29;17.10;99.90
9810;DHT22;4944;52.514;13.192;2022-09-11T07:53:56;17.20;99.90
9810;DHT22;4944;52.514;13.192;2022-09-11T07:56:25;17.20;99.90
9810;DHT22;4944;52.514;13.192;2022-09-11T07:58:53;17.30;99.90
9810;DHT22;4944;52.514;13.192;2022-09-11T08:01:25;17.40;99.90
9810;DHT22;4944;52.514;13.192;2022-09-11T08:03:54;17.50;99.90
9810;DHT22;4944;52.514;13.192;2022-09-11T08:06:24;17.50;99.90
9810;DHT22;4944;52.514;13.192;2022-09-11T08:08:54;17.60;99.90
9810;DHT22;4944;52.514;13.192;2022-09-11T08:11:21;17.60;99.90
9810;DHT22;4944;52.514;13.192;2022-09-11T08:13:50;17.60;99.90
9810;DHT22;4944;52.514;13.192;2022-09-11T08:16:26;17.70;99.90
9810;DHT22;4944;52.514;13.192;2022-09-11T08:18:54;17.70;99.90
9810;DHT22;4944;52.514;13.192;2022-09-11T08:21:22;17.70;99.90
9810;DHT22;4944;52.514;13.192;2022-09-11T08:23:50;17.80;99.90
9810;DHT22;4944;52.514;13.192;2022-09-11T08:26:35;17.80;99.90
9810;DHT22;4944;52.514;13.192;2022-09-11T08:29:02;17.80;99.90
9810;DHT22;4944;52.514;13.192;2022-09-11T08:31:30;17.90;99.90
9810;DHT22;4944;52.514;13.192;2022-09-11T08:33:58;17.90;99.90
9810;DHT22;4944;52.514;13.192;2022-09-11T08:36:33;17.90;99.90
9810;DHT22;4944;52.514;13.192;2022-09-11T08:39:00;18.00;99.90
9810;DHT22;4944;52.514;13.192;2022-09-11T08:41:35;18.10;99.90
9810;DHT22;4944;52.514;13.192;2022-09-11T08:44:13;18.20;99.90
9810;DHT22;4944;52.514;13.192;2022-09-11T08:46:43;18.30;99.90
9810;DHT22;4944;52.514;13.192;2022-09-11T08:49:17;18.30;99.90
9810;DHT22;4944;52.514;13.192;2022-09-11T08:51:45;18.30;99.90
9810;DHT22;4944;52.514;13.192;2022-09-11T08:54:21;18.30;99.90
9810;DHT22;4944;52.514;13.192;2022-09-11T08:56:51;18.40;99.90
9810;DHT22;4944;52.514;13.192;2022-09-11T08:59:22;18.50;99.90
9810;DHT22;4944;52.514;13.192;2022-09-11T09:02:00;18.60;99.90
9810;DHT22;4944;52.514;13.192;2022-09-11T09:04:40;18.60;99.90
9810;DHT22;4944;52.514;13.192;2022-09-11T09:07:19;18.60;99.90
9810;DHT22;4944;52.514;13.192;2022-09-11T09:09:57;18.50;99.90
9810;DHT22;4944;52.514;13.192;2022-09-11T09:12:33;18.50;99.90
9810;DHT22;4944;52.514;13.192;2022-09-11T09:15:23;18.50;99.90
9810;DHT22;4944;52.514;13.192;2022-09-11T09:18:00;18.40;99.90
9810;DHT22;4944;52.514;13.192;2022-09-11T09:20:30;18.50;99.90
9810;DHT22;4944;52.514;13.192;2022-09-11T09:22:59;18.60;99.90
9810;DHT22;4944;52.514;13.192;2022-09-11T09:25:28;18.50;99.90
9810;DHT22;4944;52.514;13.192;2022-09-11T09:28:02;18.60;99.90
9810;DHT22;4944;52.514;13.192;2022-09-11T09:30:37;18.70;99.90
9810;DHT22;4944;52.514;13.192;2022-09-11T09:33:26;18.90;99.90
9810;DHT22;4944;52.514;13.192;2022-09-11T09:35:55;19.00;99.90
9810;DHT22;4944;52.514;13.192;2022-09-11T09:38:26;19.10;99.90
9810;DHT22;4944;52.514;13.192;2022-09-11T09:41:03;19.10;99.90
9810;DHT22;4944;52.514;13.192;2022-09-11T09:43:39;18.90;99.90
9810;DHT22;4944;52.514;13.192;2022-09-11T09:46:26;18.70;99.90
9810;DHT22;4944;52.514;13.192;2022-09-11T09:48:56;18.60;99.90
9810;DHT22;4944;52.514;13.192;2022-09-11T09:51:33;18.50;99.90
9810;DHT22;4944;52.514;13.192;2022-09-11T09:54:01;18.60;99.90
9810;DHT22;4944;52.514;13.192;2022-09-11T09:56:29;18.80;99.90
9810;DHT22;4944;52.514;13.192;2022-09-11T09:59:01;18.90;99.90
9810;DHT22;4944;52.514;13.192;2022-09-11T10:01:45;19.10;99.90
9810;DHT22;4944;52.514;13.192;2022-09-11T10:04:16;19.20;99.90
9810;DHT22;4944;52.514;13.192;2022-09-11T10:06:44;19.10;99.90
9810;DHT22;4944;52.514;13.192;2022-09-11T10:09:23;19.10;99.90
9810;DHT22;4944;52.514;13.192;2022-09-11T10:11:55;19.10;99.90
9810;DHT22;4944;52.514;13.192;2022-09-11T10:14:29;19.20;99.90
9810;DHT22;4944;52.514;13.192;2022-09-11T10:16:58;19.20;99.90
9810;DHT22;4944;52.514;13.192;2022-09-11T10:19:37;19.20;99.90
9810;DHT22;4944;52.514;13.192;2022-09-11T10:22:26;19.40;99.90
9810;DHT22;4944;52.514;13.192;2022-09-11T10:25:11;19.50;99.90
9810;DHT22;4944;52.514;13.192;2022-09-11T10:27:43;19.60;99.90
9810;DHT22;4944;52.514;13.192;2022-09-11T10:30:32;19.60;99.90
9810;DHT22;4944;52.514;13.192;2022-09-11T10:33:01;19.60;99.90
9810;DHT22;4944;52.514;13.192;2022-09-11T10:35:31;19.50;99.90
9810;DHT22;4944;52.514;13.192;2022-09-11T10:38:07;19.40;99.90
9810;DHT22;4944;52.514;13.192;2022-09-11T10:40:34;19.20;99.90
9810;DHT22;4944;52.514;13.192;2022-09-11T10:43:03;19.20;99.90
9810;DHT22;4944;52.514;13.192;2022-09-11T10:45:31;19.30;99.90
9810;DHT22;4944;52.514;13.192;2022-09-11T10:48:13;19.50;99.90
9810;DHT22;4944;52.514;13.192;2022-09-11T10:50:42;19.80;99.90
9810;DHT22;4944;52.514;13.192;2022-09-11T10:53:15;20.10;99.90
9810;DHT22;4944;52.514;13.192;2022-09-11T10:55:49;20.20;99.90
9810;DHT22;4944;52.514;13.192;2022-09-11T10:58:20;20.40;99.90
9810;DHT22;4944;52.514;13.192;2022-09-11T11:00:49;20.60;99.90
9810;DHT22;4944;52.514;13.192;2022-09-11T11:03:17;20.70;99.90
9810;DHT22;4944;52.514;13.192;2022-09-11T11:05:56;20.70;99.90
9810;DHT22;4944;52.514;13.192;2022-09-11T11:08:45;20.50;99.90
9810;DHT22;4944;52.514;13.192;2022-09-11T11:11:40;20.30;99.90
9810;DHT22;4944;52.514;13.192;2022-09-11T11:14:25;20.10;99.90
9810;DHT22;4944;52.514;13.192;2022-09-11T11:17:03;20.00;99.90
9810;DHT22;4944;52.514;13.192;2022-09-11T11:19:41;20.00;99.90
9810;DHT22;4944;52.514;13.192;2022-09-11T11:22:23;19.90;99.90
9810;DHT22;4944;52.514;13.192;2022-09-11T11:24:59;19.90;99.90
9810;DHT22;4944;52.514;13.192;2022-09-11T11:27:52;19.90;99.90
9810;DHT22;4944;52.514;13.192;2022-09-11T11:30:21;19.90;99.90
9810;DHT22;4944;52.514;13.192;2022-09-11T11:33:11;19.80;99.90
9810;DHT22;4944;52.514;13.192;2022-09-11T11:35:47;19.70;99.90
9810;DHT22;4944;52.514;13.192;2022-09-11T11:38:22;19.70;99.90
9810;DHT22;4944;52.514;13.192;2022-09-11T11:40:54;19.60;99.90
9810;DHT22;4944;52.514;13.192;2022-09-11T11:43:27;19.60;99.90
9810;DHT22;4944;52.514;13.192;2022-09-11T11:45:57;19.70;99.90
9810;DHT22;4944;52.514;13.192;2022-09-11T11:48:33;19.70;99.90
9810;DHT22;4944;52.514;13.192;2022-09-11T11:51:06;19.90;99.90
9810;DHT22;4944;52.514;13.192;2022-09-11T11:53:53;20.10;99.90
9810;DHT22;4944;52.514;13.192;2022-09-11T11:56:30;20.30;99.90
9810;DHT22;4944;52.514;13.192;2022-09-11T11:59:02;20.40;99.90
9810;DHT22;4944;52.514;13.192;2022-09-11T12:01:37;20.50;99.90
9810;DHT22;4944;52.514;13.192;2022-09-11T12:04:16;20.50;99.90
9810;DHT22;4944;52.514;13.192;2022-09-11T12:06:45;20.50;99.90
9810;DHT22;4944;52.514;13.192;2022-09-11T12:09:15;20.40;99.90
9810;DHT22;4944;52.514;13.192;2022-09-11T12:11:45;20.40;99.90
9810;DHT22;4944;52.514;13.192;2022-09-11T12:14:24;20.30;99.90
9810;DHT22;4944;52.514;13.192;2022-09-11T12:16:52;20.30;99.90
9810;DHT22;4944;52.514;13.192;2022-09-11T12:19:23;20.20;99.90
9810;DHT22;4944;52.514;13.192;2022-09-11T12:22:13;20.00;99.90
9810;DHT22;4944;52.514;13.192;2022-09-11T12:24:57;20.00;99.90
9810;DHT22;4944;52.514;13.192;2022-09-11T12:27:50;19.90;99.90
9810;DHT22;4944;52.514;13.192;2022-09-11T12:30:25;20.00;99.90
9810;DHT22;4944;52.514;13.192;2022-09-11T12:32:53;20.00;99.90
9810;DHT22;4944;52.514;13.192;2022-09-11T12:35:26;20.10;99.90
9810;DHT22;4944;52.514;13.192;2022-09-11T12:37:59;20.10;99.90
9810;DHT22;4944;52.514;13.192;2022-09-11T12:40:34;20.10;99.90
9810;DHT22;4944;52.514;13.192;2022-09-11T12:43:26;20.00;99.90
9810;DHT22;4944;52.514;13.192;2022-09-11T12:45:53;19.90;99.90
9810;DHT22;4944;52.514;13.192;2022-09-11T12:48:23;19.80;99.90
9810;DHT22;4944;52.514;13.192;2022-09-11T12:50:54;19.70;99.90
9810;DHT22;4944;52.514;13.192;2022-09-11T12:53:25;19.60;99.90
9810;DHT22;4944;52.514;13.192;2022-09-11T12:55:56;19.50;99.90
9810;DHT22;4944;52.514;13.192;2022-09-11T12:58:28;19.50;99.90
9810;DHT22;4944;52.514;13.192;2022-09-11T13:01:20;19.40;99.90
9810;DHT22;4944;52.514;13.192;2022-09-11T13:03:52;19.50;99.90
9810;DHT22;4944;52.514;13.192;2022-09-11T13:06:24;19.50;99.90
9810;DHT22;4944;52.514;13.192;2022-09-11T13:09:01;19.50;99.90
9810;DHT22;4944;52.514;13.192;2022-09-11T13:11:37;19.50;99.90
9810;DHT22;4944;52.514;13.192;2022-09-11T13:14:05;19.50;99.90
9810;DHT22;4944;52.514;13.192;2022-09-11T13:16:54;19.60;99.90
9810;DHT22;4944;52.514;13.192;2022-09-11T13:19:21;19.60;99.90
9810;DHT22;4944;52.514;13.192;2022-09-11T13:21:50;19.50;99.90
9810;DHT22;4944;52.514;13.192;2022-09-11T13:24:22;19.60;99.90
9810;DHT22;4944;52.514;13.192;2022-09-11T13:26:50;19.60;99.90
9810;DHT22;4944;52.514;13.192;2022-09-11T13:29:20;19.60;99.90
9810;DHT22;4944;52.514;13.192;2022-09-11T13:31:49;19.60;99.90
9810;DHT22;4944;52.514;13.192;2022-09-11T13:34:18;19.60;99.90
9810;DHT22;4944;52.514;13.192;2022-09-11T13:36:49;19.70;99.90
9810;DHT22;4944;52.514;13.192;2022-09-11T13:39:17;20.10;99.90
9810;DHT22;4944;52.514;13.192;2022-09-11T13:41:46;20.50;99.90
9810;DHT22;4944;52.514;13.192;2022-09-11T13:44:30;20.90;99.90
9810;DHT22;4944;52.514;13.192;2022-09-11T13:47:01;21.30;99.90
9810;DHT22;4944;52.514;13.192;2022-09-11T13:49:34;21.50;99.90
9810;DHT22;4944;52.514;13.192;2022-09-11T13:52:03;21.90;99.90
9810;DHT22;4944;52.514;13.192;2022-09-11T13:54:32;22.00;99.90
9810;DHT22;4944;52.514;13.192;2022-09-11T13:57:13;22.20;99.90
9810;DHT22;4944;52.514;13.192;2022-09-11T13:59:44;22.30;99.90
9810;DHT22;4944;52.514;13.192;2022-09-11T14:02:29;22.60;99.90
9810;DHT22;4944;52.514;13.192;2022-09-11T14:05:09;22.70;99.90
9810;DHT22;4944;52.514;13.192;2022-09-11T14:07:43;23.10;99.90
9810;DHT22;4944;52.514;13.192;2022-09-11T14:10:17;23.30;99.90
9810;DHT22;4944;52.514;13.192;2022-09-11T14:12:48;23.50;99.90
9810;DHT22;4944;52.514;13.192;2022-09-11T14:15:20;23.60;99.90
9810;DHT22;4944;52.514;13.192;2022-09-11T14:17:49;23.60;99.90
9810;DHT22;4944;52.514;13.192;2022-09-11T14:20:19;23.20;99.90
9810;DHT22;4944;52.514;13.192;2022-09-11T14:22:52;23.10;99.90
9810;DHT22;4944;52.514;13.192;2022-09-11T14:25:20;22.80;99.90
9810;DHT22;4944;52.514;13.192;2022-09-11T14:27:48;22.70;99.90
9810;DHT22;4944;52.514;13.192;2022-09-11T14:30:32;22.40;99.90
9810;DHT22;4944;52.514;13.192;2022-09-11T14:33:23;21.90;99.90
9810;DHT22;4944;52.514;13.192;2022-09-11T14:35:57;21.70;99.90
9810;DHT22;4944;52.514;13.192;2022-09-11T14:38:25;21.40;99.90
9810;DHT22;4944;52.514;13.192;2022-09-11T14:40:57;21.20;99.90
9810;DHT22;4944;52.514;13.192;2022-09-11T14:43:27;21.10;99.90
9810;DHT22;4944;52.514;13.192;2022-09-11T14:45:58;21.10;99.90
9810;DHT22;4944;52.514;13.192;2022-09-11T14:48:25;21.30;99.90
9810;DHT22;4944;52.514;13.192;2022-09-11T14:50:54;21.50;99.90
9810;DHT22;4944;52.514;13.192;2022-09-11T14:53:26;21.70;99.90
9810;DHT22;4944;52.514;13.192;2022-09-11T14:55:55;22.00;99.90
9810;DHT22;4944;52.514;13.192;2022-09-11T14:58:22;22.10;99.90
9810;DHT22;4944;52.514;13.192;2022-09-11T15:00:49;22.40;99.90
9810;DHT22;4944;52.514;13.192;2022-09-11T15:03:16;22.80;99.90
9810;DHT22;4944;52.514;13.192;2022-09-11T15:05:44;23.00;99.90
9810;DHT22;4944;52.514;13.192;2022-09-11T15:08:13;23.20;99.90
9810;DHT22;4944;52.514;13.192;2022-09-11T15:10:40;23.40;99.90
9810;DHT22;4944;52.514;13.192;2022-09-11T15:13:07;23.40;99.90
9810;DHT22;4944;52.514;13.192;2022-09-11T15:15:34;23.40;99.90
9810;DHT22;4944;52.514;13.192;2022-09-11T15:18:01;23.20;99.90
9810;DHT22;4944;52.514;13.192;2022-09-11T15:20:29;22.90;99.90
9810;DHT22;4944;52.514;13.192;2022-09-11T15:22:56;22.60;99.90
9810;DHT22;4944;52.514;13.192;2022-09-11T15:25:24;22.40;99.90
9810;DHT22;4944;52.514;13.192;2022-09-11T15:27:51;22.20;99.90
9810;DHT22;4944;52.514;13.192;2022-09-11T15:30:19;22.00;99.90
9810;DHT22;4944;52.514;13.192;2022-09-11T15:32:46;21.90;99.90
9810;DHT22;4944;52.514;13.192;2022-09-11T15:35:13;21.70;99.90
9810;DHT22;4944;52.514;13.192;2022-09-11T15:37:43;21.60;99.90
9810;DHT22;4944;52.514;13.192;2022-09-11T15:40:11;21.40;99.90
9810;DHT22;4944;52.514;13.192;2022-09-11T15:42:39;21.20;99.90
9810;DHT22;4944;52.514;13.192;2022-09-11T15:45:07;21.00;99.90
9810;DHT22;4944;52.514;13.192;2022-09-11T15:47:34;20.90;99.90
9810;DHT22;4944;52.514;13.192;2022-09-11T15:50:01;20.80;99.90
9810;DHT22;4944;52.514;13.192;2022-09-11T15:52:27;20.70;99.90
9810;DHT22;4944;52.514;13.192;2022-09-11T15:54:54;20.70;99.90
9810;DHT22;4944;52.514;13.192;2022-09-11T15:57:21;20.50;99.90
9810;DHT22;4944;52.514;13.192;2022-09-11T15:59:51;20.50;99.90
9810;DHT22;4944;52.514;13.192;2022-09-11T16:02:18;20.40;99.90
9810;DHT22;4944;52.514;13.192;2022-09-11T16:04:46;20.40;99.90
9810;DHT22;4944;52.514;13.192;2022-09-11T16:07:12;20.20;99.90
9810;DHT22;4944;52.514;13.192;2022-09-11T16:09:40;20.10;99.90
9810;DHT22;4944;52.514;13.192;2022-09-11T16:12:06;20.10;99.90
9810;DHT22;4944;52.514;13.192;2022-09-11T16:14:35;20.00;99.90